createdAt,value
2024-02-01T00:00:06.363Z,5.72
2024-02-01T00:02:33.985Z,6.10
2024-02-01T00:05:01.558Z,5.90
2024-02-01T00:07:29.406Z,6.05
2024-02-01T00:09:56.799Z,6.28
2024-02-01T00:12:24.225Z,6.55
2024-02-01T00:14:52.984Z,5.70
2024-02-01T00:17:20.445Z,5.93
2024-02-01T00:19:48.072Z,6.47
2024-02-01T00:22:27.307Z,6.50
2024-02-01T00:24:58.313Z,6.05
2024-02-01T00:27:25.841Z,6.20
2024-02-01T00:29:54.635Z,6.10
2024-02-01T00:32:22.198Z,6.32
2024-02-01T00:34:49.849Z,6.50
2024-02-01T00:37:18.076Z,6.57
2024-02-01T00:39:45.551Z,6.82
2024-02-01T00:42:13.069Z,7.03
2024-02-01T00:44:40.604Z,6.82
2024-02-01T00:47:09.458Z,7.32
2024-02-01T00:49:37.252Z,7.50
2024-02-01T00:52:05.347Z,7.85
2024-02-01T00:54:33.036Z,6.93
2024-02-01T00:57:00.608Z,7.32
2024-02-01T00:59:29.129Z,7.20
2024-02-01T01:01:56.772Z,7.90
2024-02-01T01:04:25.793Z,7.32
2024-02-01T01:06:53.302Z,7.43
2024-02-01T01:09:20.851Z,7.78
2024-02-01T01:11:48.354Z,7.20
2024-02-01T01:14:15.824Z,6.72
2024-02-01T01:16:43.301Z,7.55
2024-02-01T01:19:11.401Z,7.32
2024-02-01T01:21:40.359Z,6.55
2024-02-01T01:24:07.918Z,7.88
2024-02-01T01:26:35.553Z,6.55
2024-02-01T01:29:03.030Z,7.57
2024-02-01T01:31:30.523Z,7.22
2024-02-01T01:33:58.139Z,7.00
2024-02-01T01:36:25.729Z,6.93
2024-02-01T01:38:54.558Z,7.72
2024-02-01T01:41:22.064Z,7.05
2024-02-01T01:43:49.592Z,7.32
2024-02-01T01:46:17.054Z,7.45
2024-02-01T01:48:44.667Z,7.13
2024-02-01T01:51:12.319Z,7.10
2024-02-01T01:53:40.530Z,6.97
2024-02-01T01:56:10.097Z,7.68
2024-02-01T01:58:37.730Z,7.68
2024-02-01T02:01:05.808Z,6.20
2024-02-01T02:03:38.664Z,7.82
2024-02-01T02:08:34.062Z,7.00
2024-02-01T02:11:01.784Z,6.47
2024-02-01T02:13:30.564Z,6.82
2024-02-01T02:15:58.053Z,6.65
2024-02-01T02:18:25.912Z,6.93
2024-02-01T02:20:56.716Z,6.22
2024-02-01T02:23:25.577Z,6.43
2024-02-01T02:25:53.002Z,6.40
2024-02-01T02:28:22.364Z,6.50
2024-02-01T02:30:49.860Z,7.13
2024-02-01T02:33:17.446Z,6.68
2024-02-01T02:35:45.316Z,7.18
2024-02-01T02:38:13.181Z,6.63
2024-02-01T02:40:41.972Z,6.70
2024-02-01T02:43:09.411Z,7.35
2024-02-01T02:45:36.837Z,6.70
2024-02-01T02:48:06.619Z,6.53
2024-02-01T02:50:34.171Z,7.57
2024-02-01T02:53:01.712Z,7.28
2024-02-01T02:55:29.893Z,7.25
2024-02-01T02:57:58.650Z,7.35
2024-02-01T03:00:26.143Z,7.40
2024-02-01T03:02:53.596Z,7.38
2024-02-01T03:05:21.045Z,7.57
2024-02-01T03:07:48.499Z,7.28
2024-02-01T03:10:16.913Z,8.15
2024-02-01T03:12:44.468Z,8.05
2024-02-01T03:15:13.357Z,8.00
2024-02-01T03:17:42.296Z,8.25
2024-02-01T03:20:19.190Z,7.63
2024-02-01T03:22:47.704Z,7.68
2024-02-01T03:25:15.607Z,8.55
2024-02-01T03:27:44.381Z,7.80
2024-02-01T03:30:14.540Z,7.63
2024-02-01T03:32:42.212Z,7.55
2024-02-01T03:35:10.697Z,7.45
2024-02-01T03:37:38.150Z,8.48
2024-02-01T03:40:06.933Z,7.57
2024-02-01T03:42:34.447Z,8.20
2024-02-01T03:45:06.252Z,8.00
2024-02-01T03:47:35.244Z,8.13
2024-02-01T03:50:02.799Z,8.95
2024-02-01T03:52:30.528Z,8.32
2024-02-01T03:54:57.950Z,8.63
2024-02-01T03:57:25.537Z,8.30
2024-02-01T03:59:54.318Z,8.85
2024-02-01T04:02:23.014Z,8.68
2024-02-01T04:04:51.980Z,8.77
2024-02-01T04:07:20.176Z,8.98
2024-02-01T04:09:49.140Z,9.00
2024-02-01T04:12:17.247Z,8.32
2024-02-01T04:14:45.002Z,8.80
2024-02-01T04:17:12.466Z,9.27
2024-02-01T04:19:40.008Z,9.18
2024-02-01T04:22:11.277Z,9.30
2024-02-01T04:24:38.736Z,9.63
2024-02-01T04:27:06.244Z,9.68
2024-02-01T04:29:36.127Z,9.90
2024-02-01T04:32:04.077Z,9.75
2024-02-01T04:34:31.970Z,10.20
2024-02-01T04:36:59.556Z,9.77
2024-02-01T04:39:31.047Z,9.25
2024-02-01T04:42:15.373Z,10.07
2024-02-01T04:44:43.537Z,10.40
2024-02-01T04:47:11.211Z,10.77
2024-02-01T04:49:38.861Z,10.77
2024-02-01T04:52:07.461Z,11.32
2024-02-01T04:54:38.283Z,10.52
2024-02-01T04:57:14.547Z,11.33
2024-02-01T04:59:45.541Z,10.90
2024-02-01T05:02:13.228Z,11.55
2024-02-01T05:04:40.716Z,11.35
2024-02-01T05:07:08.504Z,12.13
2024-02-01T05:09:39.264Z,13.10
2024-02-01T05:12:08.585Z,13.02
2024-02-01T05:14:37.474Z,14.23
2024-02-01T05:17:05.606Z,13.95
2024-02-01T05:19:33.244Z,14.38
2024-02-01T05:22:01.657Z,15.98
2024-02-01T05:24:29.316Z,15.02
2024-02-01T05:26:59.254Z,13.50
2024-02-01T05:29:27.628Z,15.23
2024-02-01T05:31:56.254Z,14.13
2024-02-01T05:34:24.479Z,14.18
2024-02-01T05:36:53.164Z,13.98
2024-02-01T05:39:27.941Z,13.80
2024-02-01T05:41:56.135Z,13.70
2024-02-01T05:44:26.461Z,15.63
2024-02-01T05:46:55.433Z,14.10
2024-02-01T05:49:23.604Z,13.73
2024-02-01T05:51:52.200Z,14.05
2024-02-01T05:54:21.081Z,13.15
2024-02-01T05:56:48.813Z,13.75
2024-02-01T05:59:17.896Z,12.82
2024-02-01T06:01:47.532Z,13.23
2024-02-01T06:04:15.932Z,13.90
2024-02-01T06:06:46.833Z,13.95
2024-02-01T06:09:14.902Z,13.80
2024-02-01T06:11:43.145Z,13.45
2024-02-01T06:14:10.638Z,12.95
2024-02-01T06:16:38.170Z,14.25
2024-02-01T06:19:07.137Z,14.80
2024-02-01T06:21:35.001Z,13.07
2024-02-01T06:24:02.935Z,14.45
2024-02-01T06:26:30.971Z,15.18
2024-02-01T06:29:01.345Z,14.85
2024-02-01T06:31:29.317Z,15.30
2024-02-01T06:33:56.864Z,15.95
2024-02-01T06:36:35.976Z,15.65
2024-02-01T06:39:11.136Z,16.00
2024-02-01T06:41:48.233Z,15.02
2024-02-01T06:44:26.706Z,15.07
2024-02-01T06:47:13.452Z,14.82
2024-02-01T06:50:04.329Z,14.88
2024-02-01T06:52:41.388Z,14.63
2024-02-01T06:55:26.381Z,15.15
2024-02-01T06:58:14.267Z,15.55
2024-02-01T07:01:02.721Z,14.68
2024-02-01T07:03:58.802Z,14.73
2024-02-01T07:06:40.527Z,14.52
2024-02-01T07:09:27.283Z,15.43
2024-02-01T07:12:15.261Z,15.93
2024-02-01T07:14:49.785Z,15.70
2024-02-01T07:17:29.250Z,15.52
2024-02-01T07:20:05.073Z,15.70
2024-02-01T07:22:37.187Z,14.38
2024-02-01T07:25:12.909Z,13.52
2024-02-01T07:27:58.719Z,14.30
2024-02-01T07:30:43.905Z,14.48
2024-02-01T07:33:28.926Z,13.05
2024-02-01T07:36:13.851Z,14.38
2024-02-01T07:38:59.168Z,13.43
2024-02-01T07:41:45.668Z,12.98
2024-02-01T07:44:30.660Z,13.32
2024-02-01T07:47:15.995Z,12.98
2024-02-01T07:50:01.176Z,12.93
2024-02-01T07:52:43.226Z,11.57
2024-02-01T07:55:28.272Z,12.50
2024-02-01T07:58:00.281Z,10.40
2024-02-01T08:00:34.645Z,10.38
2024-02-01T08:03:04.926Z,9.48
2024-02-01T08:05:50.464Z,9.30
2024-02-01T08:08:18.327Z,8.48
2024-02-01T08:10:46.165Z,8.07
2024-02-01T08:13:15.671Z,7.43
2024-02-01T08:15:44.059Z,6.82
2024-02-01T08:18:12.633Z,7.35
2024-02-01T08:20:41.309Z,7.45
2024-02-01T08:23:09.928Z,7.50
2024-02-01T08:25:41.678Z,7.57
2024-02-01T08:30:39.376Z,8.20
2024-02-01T08:33:16.899Z,8.52
2024-02-01T08:35:45.304Z,8.40
2024-02-01T08:38:13.117Z,9.00
2024-02-01T08:40:42.151Z,8.65
2024-02-01T08:43:11.166Z,8.80
2024-02-01T08:45:45.350Z,8.90
2024-02-01T08:48:13.755Z,8.02
2024-02-01T08:50:44.171Z,7.57
2024-02-01T08:53:13.038Z,8.40
2024-02-01T08:55:41.020Z,7.70
2024-02-01T08:58:12.768Z,6.82
2024-02-01T09:00:43.828Z,6.20
2024-02-01T09:03:17.030Z,6.05
2024-02-01T09:05:45.778Z,5.18
2024-02-01T09:08:14.660Z,5.00
2024-02-01T09:10:51.372Z,5.00
2024-02-01T09:13:20.736Z,5.45
2024-02-01T09:15:49.944Z,5.30
2024-02-01T09:18:17.612Z,4.93
2024-02-01T09:20:45.525Z,4.30
2024-02-01T09:23:13.897Z,4.50
2024-02-01T09:25:43.036Z,4.55
2024-02-01T09:28:14.077Z,4.03
2024-02-01T09:30:46.785Z,3.17
2024-02-01T09:33:16.404Z,3.90
2024-02-01T09:35:44.883Z,3.83
2024-02-01T09:38:12.470Z,3.63
2024-02-01T09:40:42.624Z,2.65
2024-02-01T09:43:18.311Z,3.33
2024-02-01T09:45:46.455Z,4.05
2024-02-01T09:48:17.402Z,3.20
2024-02-01T09:50:52.467Z,3.38
2024-02-01T09:53:23.603Z,3.45
2024-02-01T09:55:51.920Z,3.50
2024-02-01T09:58:19.970Z,3.13
2024-02-01T10:00:47.878Z,3.30
2024-02-01T10:03:16.179Z,3.00
2024-02-01T10:05:44.564Z,4.07
2024-02-01T10:08:15.643Z,2.85
2024-02-01T10:10:44.006Z,2.72
2024-02-01T10:13:14.879Z,3.13
2024-02-01T10:15:45.306Z,2.90
2024-02-01T10:18:17.180Z,3.05
2024-02-01T10:20:49.248Z,2.63
2024-02-01T10:23:20.730Z,2.97
2024-02-01T10:25:49.370Z,3.15
2024-02-01T10:28:18.497Z,2.55
2024-02-01T10:30:46.853Z,2.90
2024-02-01T10:33:15.217Z,3.17
2024-02-01T10:35:45.161Z,3.60
2024-02-01T10:38:15.765Z,2.75
2024-02-01T10:41:00.796Z,2.83
2024-02-01T10:43:30.344Z,2.88
2024-02-01T10:46:06.621Z,3.03
2024-02-01T10:48:36.976Z,3.42
2024-02-01T10:51:11.231Z,3.42
2024-02-01T10:53:44.382Z,2.97
2024-02-01T10:56:18.165Z,2.47
2024-02-01T10:58:47.746Z,2.78
2024-02-01T11:01:18.025Z,3.15
2024-02-01T11:03:49.152Z,3.20
2024-02-01T11:06:17.772Z,3.10
2024-02-01T11:08:46.800Z,3.10
2024-02-01T11:11:19.119Z,2.95
2024-02-01T11:13:49.890Z,3.17
2024-02-01T11:16:18.178Z,2.67
2024-02-01T11:18:55.888Z,3.97
2024-02-01T11:21:30.394Z,2.67
2024-02-01T11:24:06.735Z,2.63
2024-02-01T11:26:42.128Z,2.65
2024-02-01T11:29:11.708Z,2.92
2024-02-01T11:31:46.710Z,2.90
2024-02-01T11:34:17.043Z,2.55
2024-02-01T11:36:45.700Z,2.97
2024-02-01T11:39:14.551Z,2.65
2024-02-01T11:41:47.624Z,2.40
2024-02-01T11:44:15.654Z,2.60
2024-02-01T11:46:46.996Z,2.65
2024-02-01T11:49:19.113Z,3.58
2024-02-01T11:51:47.274Z,3.13
2024-02-01T11:54:14.895Z,2.83
2024-02-01T11:56:45.017Z,2.25
2024-02-01T11:59:12.734Z,2.15
2024-02-01T12:01:40.535Z,3.20
2024-02-01T12:04:08.316Z,2.47
2024-02-01T12:06:36.148Z,3.10
2024-02-01T12:09:03.879Z,3.00
2024-02-01T12:11:35.470Z,2.50
2024-02-01T12:16:42.457Z,2.80
2024-02-01T12:19:14.166Z,2.80
2024-02-01T12:21:42.067Z,2.90
2024-02-01T12:24:11.887Z,2.53
2024-02-01T12:26:39.476Z,2.53
2024-02-01T12:29:08.385Z,2.60
2024-02-01T12:31:35.346Z,2.90
2024-02-01T12:34:02.946Z,2.38
2024-02-01T12:36:30.869Z,3.15
2024-02-01T12:38:58.866Z,3.25
2024-02-01T12:41:26.834Z,2.67
2024-02-01T12:43:54.348Z,3.03
2024-02-01T12:46:25.863Z,3.70
2024-02-01T12:48:53.811Z,3.25
2024-02-01T12:51:28.038Z,2.85
2024-02-01T12:53:56.988Z,3.80
2024-02-01T12:56:26.693Z,2.80
2024-02-01T12:58:55.369Z,4.05
2024-02-01T13:01:27.462Z,3.70
2024-02-01T13:03:55.470Z,3.20
2024-02-01T13:06:23.270Z,3.33
2024-02-01T13:08:53.451Z,4.20
2024-02-01T13:11:26.969Z,3.53
2024-02-01T13:13:56.801Z,3.35
2024-02-01T13:16:26.574Z,3.55
2024-02-01T13:18:54.475Z,3.47
2024-02-01T13:21:22.252Z,3.60
2024-02-01T13:23:49.741Z,3.75
2024-02-01T13:26:17.326Z,3.85
2024-02-01T13:28:44.981Z,3.47
2024-02-01T13:31:12.667Z,3.40
2024-02-01T13:33:41.945Z,3.40
2024-02-01T13:36:10.742Z,2.92
2024-02-01T13:38:38.625Z,3.92
2024-02-01T13:41:06.735Z,3.40
2024-02-01T13:43:35.241Z,3.78
2024-02-01T13:46:02.816Z,4.03
2024-02-01T13:48:30.350Z,3.00
2024-02-01T13:51:04.665Z,3.88
2024-02-01T13:53:32.293Z,3.15
2024-02-01T13:56:09.574Z,3.05
2024-02-01T13:58:37.119Z,3.22
2024-02-01T14:01:04.885Z,3.63
2024-02-01T14:03:32.482Z,3.65
2024-02-01T14:06:01.369Z,3.38
2024-02-01T14:08:28.905Z,3.35
2024-02-01T14:10:57.079Z,3.50
2024-02-01T14:13:25.566Z,3.10
2024-02-01T14:15:53.041Z,2.67
2024-02-01T14:18:20.629Z,3.42
2024-02-01T14:20:48.233Z,3.92
2024-02-01T14:23:18.590Z,3.25
2024-02-01T14:25:46.315Z,3.15
2024-02-01T14:28:13.768Z,2.83
2024-02-01T14:30:41.758Z,3.38
2024-02-01T14:33:09.401Z,3.83
2024-02-01T14:35:36.920Z,3.75
2024-02-01T14:38:04.926Z,3.85
2024-02-01T14:40:33.953Z,3.63
2024-02-01T14:43:01.454Z,3.70
2024-02-01T14:45:28.971Z,4.07
2024-02-01T14:47:56.622Z,3.70
2024-02-01T14:50:24.119Z,4.47
2024-02-01T14:52:51.645Z,3.83
2024-02-01T14:55:19.119Z,3.30
2024-02-01T14:57:47.903Z,3.53
2024-02-01T15:00:18.977Z,4.63
2024-02-01T15:02:46.490Z,2.47
2024-02-01T15:05:14.867Z,4.80
2024-02-01T15:07:43.259Z,3.42
2024-02-01T15:10:15.370Z,3.70
2024-02-01T15:12:42.999Z,4.35
2024-02-01T15:15:12.035Z,4.30
2024-02-01T15:17:40.488Z,3.67
2024-02-01T15:20:09.780Z,3.30
2024-02-01T15:22:37.525Z,4.07
2024-02-01T15:25:05.613Z,4.20
2024-02-01T15:27:33.593Z,4.88
2024-02-01T15:30:10.513Z,3.30
2024-02-01T15:32:40.127Z,3.70
2024-02-01T15:35:08.269Z,3.45
2024-02-01T15:37:35.740Z,5.32
2024-02-01T15:40:03.252Z,3.22
2024-02-01T15:42:31.019Z,4.20
2024-02-01T15:44:58.628Z,4.13
2024-02-01T15:47:33.505Z,3.88
2024-02-01T15:50:10.469Z,3.58
2024-02-01T15:52:37.969Z,3.30
2024-02-01T15:55:06.406Z,3.47
2024-02-01T15:57:33.873Z,3.97
2024-02-01T16:00:01.417Z,4.07
2024-02-01T16:02:28.964Z,4.05
2024-02-01T16:04:56.564Z,3.75
2024-02-01T16:07:25.765Z,3.90
2024-02-01T16:09:53.312Z,3.22
2024-02-01T16:12:22.025Z,4.00
2024-02-01T16:14:50.067Z,3.50
2024-02-01T16:17:17.629Z,4.88
2024-02-01T16:19:47.308Z,3.95
2024-02-01T16:22:15.628Z,3.60
2024-02-01T16:24:58.897Z,3.33
2024-02-01T16:27:59.719Z,4.10
2024-02-01T16:30:54.075Z,3.33
2024-02-01T16:33:23.068Z,3.90
2024-02-01T16:35:51.874Z,4.22
2024-02-01T16:38:20.907Z,4.55
2024-02-01T16:40:50.273Z,4.57
2024-02-01T16:43:31.662Z,3.97
2024-02-01T16:45:59.331Z,4.35
2024-02-01T16:48:27.167Z,3.92
2024-02-01T16:50:54.945Z,4.00
2024-02-01T16:53:37.836Z,4.28
2024-02-01T16:56:08.519Z,4.25
2024-02-01T16:58:45.069Z,3.75
2024-02-01T17:01:37.925Z,3.95
2024-02-01T17:04:06.866Z,3.90
2024-02-01T17:06:35.508Z,4.03
2024-02-01T17:09:03.968Z,4.03
2024-02-01T17:11:35.292Z,4.07
2024-02-01T17:14:06.313Z,2.97
2024-02-01T17:16:55.224Z,3.73
2024-02-01T17:19:22.807Z,4.03
2024-02-01T17:21:50.666Z,4.35
2024-02-01T17:24:20.726Z,5.03
2024-02-01T17:26:50.418Z,4.47
2024-02-01T17:29:19.337Z,3.80
2024-02-01T17:31:48.048Z,4.28
2024-02-01T17:34:22.436Z,4.72
2024-02-01T17:36:49.969Z,4.05
2024-02-01T17:39:35.748Z,4.53
2024-02-01T17:42:09.368Z,4.20
2024-02-01T17:44:41.864Z,4.65
2024-02-01T17:47:09.478Z,4.28
2024-02-01T17:49:43.299Z,4.55
2024-02-01T17:52:42.043Z,4.22
2024-02-01T17:55:22.115Z,4.20
2024-02-01T17:57:55.707Z,5.22
2024-02-01T18:00:25.630Z,4.50
2024-02-01T18:02:55.303Z,3.78
2024-02-01T18:05:24.063Z,4.90
2024-02-01T18:07:52.134Z,4.43
2024-02-01T18:10:21.486Z,5.45
2024-02-01T18:12:49.096Z,4.30
2024-02-01T18:20:18.004Z,4.57
2024-02-01T18:22:46.213Z,4.78
2024-02-01T18:25:18.484Z,5.00
2024-02-01T18:27:48.252Z,5.15
2024-02-01T18:30:17.762Z,4.72
2024-02-01T18:32:45.747Z,4.80
2024-02-01T18:35:29.634Z,5.05
2024-02-01T18:37:57.268Z,4.95
2024-02-01T18:40:29.782Z,4.88
2024-02-01T18:43:02.866Z,5.00
2024-02-01T18:45:39.265Z,4.80
2024-02-01T18:48:07.926Z,4.43
2024-02-01T18:50:39.304Z,4.45
2024-02-01T18:53:07.198Z,4.70
2024-02-01T18:55:38.580Z,4.53
2024-02-01T18:58:06.021Z,4.70
2024-02-01T19:00:42.538Z,3.97
2024-02-01T19:03:25.503Z,4.88
2024-02-01T19:05:54.371Z,4.88
2024-02-01T19:08:25.596Z,4.10
2024-02-01T19:10:53.020Z,3.55
2024-02-01T19:13:49.982Z,4.43
2024-02-01T19:16:19.820Z,5.55
2024-02-01T19:18:47.592Z,5.07
2024-02-01T19:21:17.711Z,4.30
2024-02-01T19:23:45.649Z,5.15
2024-02-01T19:26:13.450Z,4.72
2024-02-01T19:28:48.788Z,4.22
2024-02-01T19:31:18.279Z,5.75
2024-02-01T19:33:47.785Z,6.28
2024-02-01T19:36:30.242Z,4.80
2024-02-01T19:38:58.736Z,5.18
2024-02-01T19:41:26.226Z,5.28
2024-02-01T19:43:53.929Z,5.35
2024-02-01T19:46:22.456Z,4.13
2024-02-01T19:48:50.051Z,5.45
2024-02-01T19:51:17.704Z,4.60
2024-02-01T19:53:46.569Z,4.35
2024-02-01T19:56:16.122Z,4.72
2024-02-01T19:58:43.657Z,4.47
2024-02-01T20:01:11.433Z,4.38
2024-02-01T20:03:38.931Z,5.28
2024-02-01T20:06:07.846Z,5.35
2024-02-01T20:08:35.796Z,4.18
2024-02-01T20:11:04.812Z,4.40
2024-02-01T20:13:32.321Z,5.00
2024-02-01T20:15:59.892Z,4.55
2024-02-01T20:18:28.964Z,4.13
2024-02-01T20:20:57.384Z,4.22
2024-02-01T20:23:25.126Z,5.43
2024-02-01T20:25:52.996Z,5.30
2024-02-01T20:28:49.096Z,5.20
2024-02-01T20:31:21.131Z,4.88
2024-02-01T20:33:52.312Z,5.20
2024-02-01T20:36:53.583Z,5.38
2024-02-01T20:39:28.464Z,5.10
2024-02-01T20:41:59.227Z,4.50
2024-02-01T20:44:31.254Z,4.93
2024-02-01T20:46:58.764Z,4.93
2024-02-01T20:49:26.625Z,4.93
2024-02-01T20:51:58.822Z,5.80
2024-02-01T20:54:31.737Z,5.05
2024-02-01T20:57:17.866Z,5.05
2024-02-01T20:59:49.966Z,4.65
2024-02-01T21:03:07.182Z,5.10
2024-02-01T21:05:42.247Z,4.60
2024-02-01T21:08:15.407Z,4.65
2024-02-01T21:10:48.979Z,4.88
2024-02-01T21:13:17.876Z,4.55
2024-02-01T21:15:49.402Z,4.93
2024-02-01T21:18:19.517Z,4.80
2024-02-01T21:20:48.308Z,5.40
2024-02-01T21:23:38.681Z,4.13
2024-02-01T21:26:23.755Z,4.28
2024-02-01T21:28:55.459Z,4.50
2024-02-01T21:31:46.276Z,4.18
2024-02-01T21:34:15.656Z,5.35
2024-02-01T21:36:43.573Z,4.50
2024-02-01T21:39:20.804Z,4.63
2024-02-01T21:41:48.303Z,4.65
2024-02-01T21:44:17.126Z,6.03
2024-02-01T21:46:46.019Z,3.97
2024-02-01T21:49:13.762Z,5.28
2024-02-01T21:51:41.388Z,4.47
2024-02-01T21:54:08.927Z,5.40
2024-02-01T21:56:36.386Z,4.53
2024-02-01T21:59:06.129Z,5.00
2024-02-01T22:01:33.682Z,5.10
2024-02-01T22:04:02.673Z,4.38
2024-02-01T22:06:31.340Z,4.60
2024-02-01T22:08:58.944Z,4.90
2024-02-01T22:11:26.524Z,5.47
2024-02-01T22:13:54.141Z,5.13
2024-02-01T22:16:21.719Z,4.35
2024-02-01T22:18:49.169Z,4.78
2024-02-01T22:21:18.029Z,4.53
2024-02-01T22:23:45.552Z,4.93
2024-02-01T22:26:12.998Z,4.57
2024-02-01T22:28:41.305Z,5.43
2024-02-01T22:31:09.156Z,5.18
2024-02-01T22:33:36.785Z,5.00
2024-02-01T22:36:04.625Z,5.30
2024-02-01T22:38:33.426Z,4.15
2024-02-01T22:41:00.900Z,4.90
2024-02-01T22:43:29.352Z,5.00
2024-02-01T22:45:56.793Z,5.63
2024-02-01T22:48:24.677Z,6.40
2024-02-01T22:50:52.293Z,5.50
2024-02-01T22:53:19.790Z,5.13
2024-02-01T22:55:48.599Z,5.20
2024-02-01T22:58:16.075Z,5.30
2024-02-01T23:00:43.791Z,5.35
2024-02-01T23:03:11.535Z,5.50
2024-02-01T23:05:39.114Z,5.18
2024-02-01T23:08:06.767Z,4.55
2024-02-01T23:10:34.213Z,5.20
2024-02-01T23:13:03.005Z,5.68
2024-02-01T23:15:30.528Z,4.95
2024-02-01T23:17:58.095Z,5.20
2024-02-01T23:20:25.593Z,5.88
2024-02-01T23:22:53.540Z,5.18
2024-02-01T23:25:21.636Z,4.78
2024-02-01T23:27:49.108Z,4.53
2024-02-01T23:30:18.348Z,5.85
2024-02-01T23:32:46.541Z,4.95
2024-02-01T23:35:14.727Z,5.00
2024-02-01T23:37:42.223Z,5.80
2024-02-01T23:40:11.902Z,5.18
2024-02-01T23:42:39.686Z,5.57
2024-02-01T23:45:09.818Z,5.22
2024-02-01T23:47:38.701Z,6.45
2024-02-01T23:50:07.026Z,5.35
2024-02-01T23:52:37.941Z,5.50
2024-02-01T23:55:06.049Z,4.57
2024-02-01T23:57:34.003Z,5.63
